Time;durP1;ratioP1;P1;durP2;ratioP2;P2;SDS_P1;SDS_P2;PMS_P1;PMS_P2;Temp;Humidity;BMP_temperature;BMP_pressure;BME280_temperature;BME280_humidity;BME280_pressure;Samples;Min_cycle;Max_cycle;Signal;HPM_P1;HPM_P2
2023/06/11 00:00:53;;;;;;;10.30;4.50;;;24.20;93.00;;;;;;4208294;28;20075;-60
2023/06/11 00:02:56;;;;;;;10.27;6.30;;;24.20;93.10;;;;;;4213327;28;20186;-63
2023/06/11 00:04:59;;;;;;;9.02;4.75;;;24.30;93.10;;;;;;4209671;28;20067;-61
2023/06/11 00:07:02;;;;;;;6.72;4.32;;;24.20;93.20;;;;;;4203549;28;20474;-59
2023/06/11 00:09:04;;;;;;;11.80;4.38;;;24.20;93.20;;;;;;4213479;28;20075;-60
2023/06/11 00:11:06;;;;;;;6.32;4.45;;;24.10;93.20;;;;;;4202783;28;20479;-62
2023/06/11 00:13:08;;;;;;;4.53;4.00;;;24.10;93.10;;;;;;4211601;28;20046;-62
2023/06/11 00:15:12;;;;;;;5.80;3.60;;;24.10;93.10;;;;;;4211135;28;20392;-61
2023/06/11 00:17:14;;;;;;;8.48;4.68;;;24.00;92.90;;;;;;4202725;28;20046;-60
2023/06/11 00:19:19;;;;;;;6.18;4.38;;;24.10;92.80;;;;;;4213415;28;20052;-60
2023/06/11 00:21:22;;;;;;;7.63;4.57;;;24.00;92.50;;;;;;4203719;28;20059;-60
2023/06/11 00:23:24;;;;;;;12.35;4.30;;;24.00;92.50;;;;;;4210756;28;20071;-63
2023/06/11 00:25:26;;;;;;;6.05;4.40;;;24.00;92.40;;;;;;4211109;28;20047;-63
2023/06/11 00:27:28;;;;;;;27.77;14.32;;;24.00;92.40;;;;;;4209462;28;20051;-63
2023/06/11 00:29:31;;;;;;;8.00;4.95;;;24.00;92.40;;;;;;4213509;28;20068;-63
2023/06/11 00:31:34;;;;;;;6.72;4.68;;;24.00;92.50;;;;;;4204791;28;20040;-63
2023/06/11 00:33:36;;;;;;;7.65;5.30;;;24.00;92.70;;;;;;4209630;28;20055;-61
2023/06/11 00:35:38;;;;;;;6.30;4.75;;;23.90;92.80;;;;;;4214341;28;20044;-60
2023/06/11 00:37:42;;;;;;;6.03;4.90;;;23.90;92.90;;;;;;4204780;28;20082;-63
2023/06/11 00:39:44;;;;;;;5.60;4.30;;;23.80;93.50;;;;;;4216654;28;20082;-62
2023/06/11 00:41:48;;;;;;;5.20;4.47;;;23.80;93.50;;;;;;4209015;28;20066;-65
2023/06/11 00:43:52;;;;;;;7.40;4.40;;;23.80;93.60;;;;;;4211198;28;20084;-64
2023/06/11 00:45:56;;;;;;;7.77;4.50;;;23.70;93.70;;;;;;4214537;28;20079;-62
2023/06/11 00:48:00;;;;;;;10.70;5.18;;;23.70;94.10;;;;;;4205022;28;20044;-63
2023/06/11 00:50:04;;;;;;;5.63;4.22;;;23.70;93.90;;;;;;4216585;28;20040;-60
2023/06/11 00:52:12;;;;;;;6.22;4.35;;;23.60;94.30;;;;;;4208512;28;20456;-65
2023/06/11 00:54:16;;;;;;;6.75;4.85;;;23.60;95.00;;;;;;4211024;28;20097;-65
2023/06/11 00:56:19;;;;;;;5.95;4.45;;;23.60;94.60;;;;;;4214953;28;20057;-63
2023/06/11 00:58:22;;;;;;;8.18;4.70;;;23.60;94.90;;;;;;4205181;28;20113;-62
2023/06/11 01:00:24;;;;;;;8.80;5.00;;;23.60;94.20;;;;;;4216503;28;20040;-64
2023/06/11 01:02:39;;;;;;;10.50;5.22;;;23.60;94.30;;;;;;4208894;28;20075;-64
2023/06/11 01:04:44;;;;;;;10.10;4.68;;;23.60;94.40;;;;;;4211677;28;20090;-62
2023/06/11 01:06:49;;;;;;;17.70;4.93;;;23.60;94.30;;;;;;4196291;28;20214;-64
2023/06/11 01:08:55;;;;;;;6.97;3.70;;;23.60;94.10;;;;;;4204725;28;20048;-64
2023/06/11 01:11:08;;;;;;;9.85;5.07;;;23.60;94.10;;;;;;4216069;28;20048;-64
2023/06/11 01:13:10;;;;;;;7.90;3.97;;;23.60;94.20;;;;;;4205717;28;20102;-64
2023/06/11 01:15:14;;;;;;;5.40;3.95;;;23.50;94.00;;;;;;4212953;28;20044;-63
2023/06/11 01:17:23;;;;;;;5.15;4.00;;;23.50;94.00;;;;;;4214294;28;20051;-61
2023/06/11 01:20:02;;;;;;;4.65;3.20;;;23.40;94.30;;;;;;4187822;28;20040;-61
2023/06/11 01:22:13;;;;;;;5.15;3.67;;;23.30;94.30;;;;;;4214260;28;20052;-61
2023/06/11 01:24:21;;;;;;;5.35;3.58;;;23.30;94.30;;;;;;4203563;28;20383;-64
2023/06/11 01:26:43;;;;;;;3.80;3.50;;;23.30;94.30;;;;;;4215709;28;20082;-63
2023/06/11 01:28:58;;;;;;;4.20;3.35;;;23.40;94.20;;;;;;4211426;28;20482;-64
2023/06/11 01:31:04;;;;;;;3.97;3.10;;;23.30;94.20;;;;;;4199200;28;20462;-61
2023/06/11 01:33:08;;;;;;;3.75;3.42;;;23.30;94.20;;;;;;4202813;28;20044;-61
2023/06/11 01:35:10;;;;;;;4.13;3.40;;;23.30;94.10;;;;;;4205796;28;20044;-61
2023/06/11 01:37:14;;;;;;;4.38;3.90;;;23.30;94.20;;;;;;4181412;28;20045;-60
2023/06/11 01:39:16;;;;;;;5.13;3.65;;;23.30;94.30;;;;;;4211243;28;20086;-61
2023/06/11 01:41:18;;;;;;;5.25;4.22;;;23.30;94.40;;;;;;4198674;28;20102;-61
2023/06/11 01:43:23;;;;;;;6.25;4.05;;;23.30;94.40;;;;;;4201533;28;20040;-63
2023/06/11 01:45:32;;;;;;;4.68;3.70;;;23.30;94.50;;;;;;4204626;28;20131;-61
2023/06/11 01:47:34;;;;;;;8.98;3.95;;;23.30;94.70;;;;;;4198375;28;20290;-60
2023/06/11 01:49:36;;;;;;;6.55;4.05;;;23.40;94.80;;;;;;4210704;28;20058;-62
2023/06/11 01:51:39;;;;;;;6.72;3.70;;;23.40;94.70;;;;;;4198696;28;20040;-64
2023/06/11 01:53:42;;;;;;;4.55;3.72;;;23.40;94.70;;;;;;4201854;28;20432;-63
2023/06/11 01:55:43;;;;;;;6.03;3.90;;;23.30;94.80;;;;;;4206685;28;20453;-64
2023/06/11 01:57:50;;;;;;;5.55;3.88;;;23.40;94.70;;;;;;4199053;28;20052;-63
2023/06/11 01:59:52;;;;;;;6.03;4.22;;;23.40;94.70;;;;;;4192720;28;20048;-64
2023/06/11 02:01:56;;;;;;;6.47;4.18;;;23.30;94.80;;;;;;4199312;28;20055;-64
2023/06/11 02:03:58;;;;;;;8.02;4.80;;;23.30;95.10;;;;;;4200591;28;20410;-64
2023/06/11 02:06:00;;;;;;;6.20;4.40;;;23.30;95.20;;;;;;4207265;28;20048;-64
2023/06/11 02:08:03;;;;;;;7.72;4.53;;;23.30;95.30;;;;;;4198592;28;20055;-63
2023/06/11 02:10:05;;;;;;;5.75;4.40;;;23.30;94.90;;;;;;4208994;28;20044;-64
2023/06/11 02:12:08;;;;;;;4.28;3.60;;;23.40;94.90;;;;;;4200478;28;20070;-62
2023/06/11 02:14:10;;;;;;;7.43;4.28;;;23.40;95.00;;;;;;4199171;28;20068;-65
2023/06/11 02:16:12;;;;;;;6.18;4.57;;;23.40;94.90;;;;;;4208973;28;20044;-62
2023/06/11 02:18:16;;;;;;;9.88;4.70;;;23.40;95.10;;;;;;4197983;28;20052;-62
2023/06/11 02:20:18;;;;;;;5.80;4.65;;;23.30;95.20;;;;;;4207665;28;20078;-64
2023/06/11 02:22:20;;;;;;;6.78;4.85;;;23.30;95.20;;;;;;4201004;28;20080;-62
2023/06/11 02:24:22;;;;;;;4.88;4.25;;;23.30;95.30;;;;;;4198660;28;20036;-64
2023/06/11 02:26:24;;;;;;;6.65;4.35;;;23.30;95.10;;;;;;4212486;28;20040;-64
2023/06/11 02:28:26;;;;;;;7.40;4.65;;;23.30;95.00;;;;;;4215020;28;20040;-62
2023/06/11 02:30:28;;;;;;;6.57;4.15;;;23.30;95.10;;;;;;4210885;28;20455;-64
2023/06/11 02:32:30;;;;;;;5.18;4.15;;;23.30;95.10;;;;;;4202062;28;20052;-63
2023/06/11 02:34:34;;;;;;;5.10;4.60;;;23.30;95.20;;;;;;4198433;28;20048;-64
2023/06/11 02:36:36;;;;;;;5.70;4.50;;;23.30;95.40;;;;;;4209292;28;20064;-61
2023/06/11 02:38:38;;;;;;;4.95;4.38;;;23.30;95.50;;;;;;4198198;28;20068;-61
2023/06/11 02:40:40;;;;;;;6.00;4.43;;;23.20;95.50;;;;;;4204370;28;20466;-61
2023/06/11 02:42:42;;;;;;;5.88;4.60;;;23.20;95.80;;;;;;4203469;28;20048;-61
2023/06/11 02:44:45;;;;;;;5.00;4.40;;;23.20;95.70;;;;;;4196945;28;20423;-61
2023/06/11 02:46:47;;;;;;;7.50;4.65;;;23.20;95.70;;;;;;4203025;28;20040;-62
2023/06/11 02:48:49;;;;;;;6.43;4.60;;;23.30;95.80;;;;;;4214395;28;20131;-61
2023/06/11 02:50:52;;;;;;;7.30;4.60;;;23.30;95.80;;;;;;4208631;28;20500;-62
2023/06/11 02:52:54;;;;;;;6.57;5.20;;;23.30;95.70;;;;;;4207575;28;20043;-61
2023/06/11 02:54:56;;;;;;;5.55;4.60;;;23.20;95.90;;;;;;4213357;28;20140;-62
2023/06/11 02:56:58;;;;;;;6.68;4.70;;;23.20;96.00;;;;;;4201551;28;20048;-61
2023/06/11 02:59:00;;;;;;;6.75;4.30;;;23.20;95.80;;;;;;4214605;28;20044;-61
2023/06/11 03:01:03;;;;;;;9.57;4.90;;;23.20;95.90;;;;;;4209961;28;20730;-62
2023/06/11 03:03:05;;;;;;;7.20;5.15;;;23.20;96.10;;;;;;4206196;28;20314;-62
2023/06/11 03:05:07;;;;;;;9.68;5.00;;;23.20;96.00;;;;;;4213700;28;20074;-61
2023/06/11 03:07:12;;;;;;;7.07;4.72;;;23.20;95.90;;;;;;4201682;28;20105;-64
2023/06/11 03:09:14;;;;;;;8.20;4.43;;;23.20;96.00;;;;;;4214283;28;20043;-63
2023/06/11 03:11:16;;;;;;;7.15;4.40;;;23.20;96.20;;;;;;4210668;28;20444;-64
2023/06/11 03:13:18;;;;;;;6.57;4.75;;;23.20;96.00;;;;;;4204961;28;20083;-63
2023/06/11 03:15:20;;;;;;;7.63;4.57;;;23.20;96.00;;;;;;4195058;28;20040;-64
2023/06/11 03:17:22;;;;;;;5.85;4.45;;;23.10;95.80;;;;;;4202704;28;20119;-63
2023/06/11 03:19:24;;;;;;;6.05;4.20;;;23.10;95.80;;;;;;4194583;28;20044;-63
2023/06/11 03:21:26;;;;;;;7.57;4.72;;;23.10;95.90;;;;;;4212620;28;20055;-64
2023/06/11 03:23:30;;;;;;;6.63;4.57;;;23.10;96.20;;;;;;4208125;28;20053;-64
2023/06/11 03:25:32;;;;;;;8.88;4.65;;;23.10;96.10;;;;;;4196245;28;20052;-64
2023/06/11 03:27:34;;;;;;;4.53;3.72;;;23.10;96.00;;;;;;4202153;28;20041;-64
2023/06/11 03:29:36;;;;;;;7.47;4.45;;;23.10;95.80;;;;;;4211459;28;20054;-64
2023/06/11 03:31:40;;;;;;;7.10;4.40;;;23.10;95.80;;;;;;4209141;28;20513;-64
2023/06/11 03:33:42;;;;;;;7.00;4.20;;;23.10;95.80;;;;;;4208882;28;20063;-64
2023/06/11 03:35:44;;;;;;;5.07;4.05;;;23.20;95.70;;;;;;4196445;28;20131;-61
2023/06/11 03:37:46;;;;;;;6.93;4.45;;;23.20;95.60;;;;;;4204461;28;20524;-61
2023/06/11 03:39:50;;;;;;;6.20;4.72;;;23.10;95.40;;;;;;4200744;28;20090;-61
2023/06/11 03:41:52;;;;;;;6.13;4.25;;;23.20;95.30;;;;;;4198461;28;20153;-63
2023/06/11 03:43:54;;;;;;;5.68;4.60;;;23.20;95.40;;;;;;4208070;28;20136;-63
2023/06/11 03:45:56;;;;;;;8.93;4.72;;;23.20;95.20;;;;;;4195563;28;20080;-63
2023/06/11 03:47:58;;;;;;;5.38;4.07;;;23.20;95.30;;;;;;4203999;28;20051;-63
2023/06/11 03:50:00;;;;;;;5.60;3.83;;;23.20;95.40;;;;;;4202144;28;20049;-63
2023/06/11 03:52:03;;;;;;;5.72;3.92;;;23.20;95.30;;;;;;4197524;28;20125;-63
2023/06/11 03:54:06;;;;;;;4.10;3.70;;;23.20;95.30;;;;;;4202061;28;20098;-63
2023/06/11 03:56:10;;;;;;;6.50;4.07;;;23.20;95.30;;;;;;4212640;28;20051;-63
2023/06/11 03:58:12;;;;;;;5.68;4.65;;;23.20;95.00;;;;;;4207122;28;20072;-62
2023/06/11 04:00:15;;;;;;;7.53;3.95;;;23.20;94.90;;;;;;4207397;28;20048;-63
2023/06/11 04:02:17;;;;;;;5.40;4.05;;;23.30;94.60;;;;;;4212447;28;20102;-63
2023/06/11 04:04:19;;;;;;;5.45;3.63;;;23.30;94.70;;;;;;4201902;28;20165;-65
2023/06/11 04:06:21;;;;;;;8.82;4.35;;;23.30;94.80;;;;;;4212608;28;20134;-63
2023/06/11 04:08:24;;;;;;;5.63;4.25;;;23.30;95.00;;;;;;4207997;28;20128;-61
2023/06/11 04:10:26;;;;;;;6.85;5.07;;;23.20;95.30;;;;;;4188292;28;20047;-61
2023/06/11 04:12:29;;;;;;;5.50;4.40;;;23.20;94.90;;;;;;4213421;28;20067;-64
2023/06/11 04:14:31;;;;;;;5.68;4.55;;;23.30;94.90;;;;;;4211438;28;20444;-63
2023/06/11 04:16:34;;;;;;;6.80;4.55;;;23.30;94.70;;;;;;4196219;28;20059;-63
2023/06/11 04:18:36;;;;;;;9.57;5.13;;;23.30;94.40;;;;;;4200403;28;20047;-63
2023/06/11 04:20:38;;;;;;;4.35;3.95;;;23.40;94.50;;;;;;4205065;28;20123;-63
2023/06/11 04:22:40;;;;;;;14.23;4.50;;;23.40;94.50;;;;;;4196500;28;20083;-63
2023/06/11 04:24:42;;;;;;;4.70;4.20;;;23.40;94.50;;;;;;4207234;28;20468;-63
2023/06/11 04:26:44;;;;;;;6.82;4.10;;;23.40;94.60;;;;;;4185202;28;20143;-61
2023/06/11 04:28:48;;;;;;;4.55;3.72;;;23.40;94.80;;;;;;4208789;28;20044;-60
2023/06/11 04:30:51;;;;;;;5.72;4.78;;;23.40;94.80;;;;;;4206088;28;20049;-60
2023/06/11 04:32:55;;;;;;;6.38;4.85;;;23.40;94.90;;;;;;4196772;28;20052;-60
2023/06/11 04:35:01;;;;;;;6.25;4.80;;;23.50;95.00;;;;;;4206616;28;20040;-64
2023/06/11 04:37:04;;;;;;;6.85;4.80;;;23.40;95.10;;;;;;4198229;28;20091;-63
2023/06/11 04:39:08;;;;;;;10.82;4.60;;;23.40;95.10;;;;;;4199204;28;20072;-61
2023/06/11 04:41:11;;;;;;;8.25;5.47;;;23.40;95.10;;;;;;4206657;28;20053;-61
2023/06/11 04:43:13;;;;;;;7.53;4.90;;;23.50;95.00;;;;;;4196425;28;20359;-64
2023/06/11 04:45:18;;;;;;;7.55;4.15;;;23.50;94.80;;;;;;4205924;28;20066;-63
2023/06/11 04:47:22;;;;;;;5.43;4.15;;;23.50;94.70;;;;;;4197872;28;20045;-62
2023/06/11 04:49:27;;;;;;;4.82;4.03;;;23.50;95.10;;;;;;4200314;28;20043;-63
2023/06/11 04:51:32;;;;;;;5.65;4.57;;;23.50;95.00;;;;;;4203276;28;20052;-63
2023/06/11 04:53:37;;;;;;;13.90;5.13;;;23.50;95.30;;;;;;4213224;28;20048;-63
2023/06/11 04:55:40;;;;;;;8.20;4.65;;;23.50;95.50;;;;;;4200639;28;20080;-62
2023/06/11 04:57:42;;;;;;;5.80;5.20;;;23.50;95.50;;;;;;4211698;28;20089;-62
2023/06/11 04:59:45;;;;;;;6.53;4.90;;;23.50;95.90;;;;;;4210860;28;20074;-62
2023/06/11 05:01:50;;;;;;;5.63;3.97;;;23.50;96.10;;;;;;4202473;28;20052;-64
2023/06/11 05:03:52;;;;;;;7.93;4.63;;;23.50;95.50;;;;;;4212896;28;20125;-63
2023/06/11 05:05:55;;;;;;;5.70;4.70;;;23.50;95.80;;;;;;4201582;28;20479;-60
2023/06/11 05:07:57;;;;;;;8.55;4.35;;;23.50;95.50;;;;;;4210840;28;20048;-60
2023/06/11 05:09:59;;;;;;;5.40;4.63;;;23.60;95.50;;;;;;4211741;28;20055;-63
2023/06/11 05:12:01;;;;;;;6.40;4.88;;;23.60;95.50;;;;;;4202061;28;20076;-63
2023/06/11 05:14:03;;;;;;;6.10;5.35;;;23.60;95.60;;;;;;4213282;28;20079;-60
2023/06/11 05:16:05;;;;;;;8.10;5.07;;;23.60;95.90;;;;;;4202922;28;20071;-61
2023/06/11 05:18:09;;;;;;;9.18;5.05;;;23.60;95.90;;;;;;4209364;28;20044;-61
2023/06/11 05:20:12;;;;;;;8.77;4.72;;;23.60;95.90;;;;;;4212364;28;20120;-60
2023/06/11 05:22:15;;;;;;;6.53;5.00;;;23.70;95.90;;;;;;4204376;28;20061;-61
2023/06/11 05:24:19;;;;;;;11.98;5.32;;;23.70;96.00;;;;;;4215880;28;20044;-61
2023/06/11 05:26:31;;;;;;;7.07;5.22;;;23.70;95.90;;;;;;4209220;28;20492;-61
2023/06/11 05:28:33;;;;;;;6.07;4.88;;;23.70;96.00;;;;;;4215766;28;20075;-63
2023/06/11 05:30:38;;;;;;;6.82;5.15;;;23.70;96.10;;;;;;4214426;28;20131;-63
2023/06/11 05:32:43;;;;;;;7.65;5.72;;;23.70;95.90;;;;;;4204171;28;20036;-62
2023/06/11 05:34:49;;;;;;;;;;;23.80;96.00;;;;;;4216160;28;20039;-61
2023/06/11 05:36:51;;;;;;;;;;;23.70;96.20;;;;;;4206278;28;20365;-61
2023/06/11 05:38:53;;;;;;;6.70;5.65;;;23.70;96.10;;;;;;4212753;28;19920;-61
2023/06/11 05:40:55;;;;;;;10.45;5.68;;;23.70;96.00;;;;;;4213992;28;20508;-62
2023/06/11 05:42:58;;;;;;;8.20;5.20;;;23.80;96.00;;;;;;4204579;28;20048;-61
2023/06/11 05:45:00;;;;;;;9.02;5.93;;;23.80;96.20;;;;;;4215225;28;20072;-61
2023/06/11 05:47:03;;;;;;;7.57;5.50;;;23.90;95.70;;;;;;4207218;28;20485;-61
2023/06/11 05:49:06;;;;;;;8.18;5.70;;;23.90;95.70;;;;;;4211331;28;20050;-61
2023/06/11 05:51:10;;;;;;;8.80;6.47;;;24.00;95.70;;;;;;4195908;28;20049;-62
2023/06/11 05:53:13;;;;;;;7.13;6.20;;;24.00;95.70;;;;;;4204169;28;20549;-61
2023/06/11 05:55:15;;;;;;;9.65;6.80;;;24.10;95.80;;;;;;4214545;28;20127;-62
2023/06/11 05:57:18;;;;;;;8.00;6.43;;;24.10;95.90;;;;;;4207194;28;20139;-62
2023/06/11 05:59:21;;;;;;;9.23;6.65;;;24.10;96.20;;;;;;4210239;28;20412;-63
2023/06/11 06:01:23;;;;;;;9.90;8.43;;;24.10;95.80;;;;;;4213663;28;20075;-63
2023/06/11 06:03:25;;;;;;;9.75;6.80;;;24.10;95.90;;;;;;4203763;28;20465;-63
2023/06/11 06:05:28;;;;;;;11.07;8.20;;;24.10;96.20;;;;;;4214370;28;20044;-64
2023/06/11 06:07:32;;;;;;;10.25;7.53;;;24.10;96.60;;;;;;4209713;28;20047;-64
2023/06/11 06:09:34;;;;;;;11.48;7.90;;;24.20;96.40;;;;;;4204390;28;20253;-64
2023/06/11 06:11:36;;;;;;;8.18;7.03;;;24.10;96.60;;;;;;4199314;28;20056;-64
2023/06/11 06:13:39;;;;;;;10.00;6.93;;;24.20;96.60;;;;;;4204017;28;20053;-64
2023/06/11 06:15:42;;;;;;;10.18;7.70;;;24.20;96.50;;;;;;4214734;28;20448;-65
2023/06/11 06:17:45;;;;;;;10.07;8.27;;;24.30;96.50;;;;;;4209764;28;20475;-63
2023/06/11 06:19:47;;;;;;;9.30;8.23;;;24.30;96.50;;;;;;4208132;28;20095;-63
2023/06/11 06:21:49;;;;;;;13.25;8.07;;;24.40;96.30;;;;;;4214720;28;20048;-60
2023/06/11 06:23:52;;;;;;;12.63;7.05;;;24.40;96.30;;;;;;4209275;28;20071;-61
2023/06/11 06:25:55;;;;;;;9.32;7.53;;;24.40;96.10;;;;;;4196969;28;20075;-61
2023/06/11 06:27:57;;;;;;;12.38;7.85;;;24.50;96.00;;;;;;4209834;28;20546;-61
2023/06/11 06:29:59;;;;;;;10.80;8.23;;;24.60;95.90;;;;;;4206131;28;20505;-63
2023/06/11 06:32:01;;;;;;;11.20;8.13;;;24.60;95.80;;;;;;4197627;28;20505;-63
2023/06/11 06:34:05;;;;;;;12.35;8.50;;;24.70;95.50;;;;;;4210109;28;20135;-63
2023/06/11 06:36:07;;;;;;;9.73;8.27;;;24.90;95.30;;;;;;4197145;28;20079;-63
2023/06/11 06:38:09;;;;;;;9.40;8.43;;;24.90;95.20;;;;;;4202037;28;20055;-62
2023/06/11 06:40:14;;;;;;;9.02;7.90;;;24.90;95.30;;;;;;4204880;28;20044;-64
2023/06/11 06:42:16;;;;;;;9.80;7.60;;;24.90;95.30;;;;;;4214794;28;20135;-63
2023/06/11 06:44:18;;;;;;;10.18;8.90;;;25.00;95.20;;;;;;4202774;28;20407;-63
2023/06/11 06:46:20;;;;;;;9.70;8.45;;;25.10;95.00;;;;;;4212585;28;20044;-62
2023/06/11 06:48:23;;;;;;;12.07;9.25;;;25.20;94.80;;;;;;4212620;28;20043;-63
2023/06/11 06:50:25;;;;;;;9.55;8.40;;;25.20;94.70;;;;;;4204577;28;20043;-63
2023/06/11 06:52:27;;;;;;;9.35;8.43;;;25.30;94.60;;;;;;4214782;28;20139;-62
2023/06/11 06:54:29;;;;;;;11.18;9.13;;;25.30;94.50;;;;;;4204105;28;20174;-63
2023/06/11 06:56:33;;;;;;;9.18;8.10;;;25.30;94.40;;;;;;4210888;28;20063;-63
2023/06/11 06:58:35;;;;;;;11.93;8.47;;;25.40;94.30;;;;;;4213044;28;20452;-63
2023/06/11 07:00:38;;;;;;;12.10;10.20;;;25.40;94.40;;;;;;4202821;28;20097;-64
2023/06/11 07:02:40;;;;;;;12.75;11.20;;;25.40;94.20;;;;;;4214369;28;20122;-63
2023/06/11 07:04:42;;;;;;;11.70;10.48;;;25.60;94.20;;;;;;4205076;28;20040;-63
2023/06/11 07:06:44;;;;;;;12.98;9.90;;;25.60;94.00;;;;;;4209434;28;20048;-63
2023/06/11 07:08:46;;;;;;;11.10;9.80;;;25.60;93.70;;;;;;4212188;28;20045;-63
2023/06/11 07:10:50;;;;;;;12.00;10.68;;;25.60;93.90;;;;;;4202669;28;20054;-63
2023/06/11 07:12:54;;;;;;;;;;;25.70;93.90;;;;;;4214777;28;20063;-62
2023/06/11 07:15:00;;;;;;;9.52;8.52;;;25.80;93.80;;;;;;4205240;28;19930;-63
2023/06/11 07:17:03;;;;;;;13.07;10.18;;;25.70;94.00;;;;;;4208780;28;20082;-63
2023/06/11 07:19:05;;;;;;;15.38;11.23;;;25.90;93.90;;;;;;4194590;28;20076;-60
2023/06/11 07:21:09;;;;;;;15.85;9.57;;;26.00;93.80;;;;;;4184869;28;20088;-61
2023/06/11 07:23:11;;;;;;;16.00;11.35;;;26.30;93.80;;;;;;4213963;28;20052;-60
2023/06/11 07:25:13;;;;;;;12.50;11.23;;;26.40;93.50;;;;;;4205824;28;20461;-61
2023/06/11 07:27:15;;;;;;;13.80;9.68;;;26.40;93.40;;;;;;4208366;28;20455;-61
2023/06/11 07:29:20;;;;;;;13.23;10.25;;;26.50;93.40;;;;;;4212920;28;20048;-61
2023/06/11 07:31:22;;;;;;;10.75;9.65;;;26.60;93.20;;;;;;4208322;28;20130;-61
2023/06/11 07:33:24;;;;;;;11.50;9.90;;;26.90;93.00;;;;;;4196235;28;20048;-61
2023/06/11 07:35:26;;;;;;;11.57;10.40;;;27.10;92.70;;;;;;4202233;28;20062;-61
2023/06/11 07:37:29;;;;;;;12.73;11.00;;;27.20;92.60;;;;;;4202541;28;20048;-61
2023/06/11 07:39:31;;;;;;;14.43;12.68;;;27.20;92.30;;;;;;4197900;28;20075;-61
2023/06/11 07:41:34;;;;;;;14.10;12.30;;;27.30;92.30;;;;;;4208408;28;20040;-61
2023/06/11 07:43:36;;;;;;;13.13;10.07;;;27.30;91.90;;;;;;4196956;28;20084;-62
2023/06/11 07:45:39;;;;;;;14.38;11.88;;;27.30;91.90;;;;;;4200890;28;20044;-64
2023/06/11 07:47:42;;;;;;;12.70;11.40;;;27.40;91.90;;;;;;4203918;28;20068;-61
2023/06/11 07:49:44;;;;;;;11.60;10.40;;;27.30;91.80;;;;;;4197001;28;20454;-61
2023/06/11 07:51:46;;;;;;;15.63;10.70;;;27.30;92.00;;;;;;4208887;28;20409;-62
2023/06/11 07:53:49;;;;;;;14.13;11.20;;;27.30;91.70;;;;;;4196990;28;20127;-61
2023/06/11 07:55:56;;;;;;;12.85;10.88;;;27.30;92.00;;;;;;4199557;28;20045;-61
2023/06/11 07:57:59;;;;;;;10.43;9.20;;;27.30;91.60;;;;;;4204150;28;20048;-61
2023/06/11 08:00:01;;;;;;;11.50;10.30;;;27.30;91.60;;;;;;4196970;28;20046;-61
2023/06/11 08:02:06;;;;;;;11.00;8.95;;;27.20;91.70;;;;;;4200882;28;20044;-61
2023/06/11 08:04:08;;;;;;;12.45;9.45;;;27.20;91.70;;;;;;4196654;28;20139;-61
2023/06/11 08:06:10;;;;;;;11.98;8.38;;;27.20;91.60;;;;;;4199239;28;20136;-61
2023/06/11 08:08:13;;;;;;;9.13;7.63;;;27.30;91.50;;;;;;4204696;28;20336;-64
2023/06/11 08:10:15;;;;;;;10.57;9.35;;;27.40;91.30;;;;;;4213248;28;20048;-63
2023/06/11 08:12:17;;;;;;;11.07;9.85;;;27.30;91.30;;;;;;4183708;28;20049;-64
2023/06/11 08:14:20;;;;;;;11.00;9.65;;;27.40;91.30;;;;;;4212589;28;20044;-61
2023/06/11 08:16:22;;;;;;;18.10;9.65;;;27.30;91.30;;;;;;4209509;28;20040;-64
2023/06/11 08:18:26;;;;;;;10.65;8.93;;;27.40;91.20;;;;;;4203642;28;20094;-64
2023/06/11 08:20:28;;;;;;;10.07;8.10;;;27.30;90.90;;;;;;4212870;28;20426;-64
2023/06/11 08:22:30;;;;;;;9.20;8.18;;;27.30;90.90;;;;;;4202707;28;20057;-63
2023/06/11 08:24:32;;;;;;;10.60;7.80;;;27.30;90.90;;;;;;4211239;28;20075;-63
2023/06/11 08:26:34;;;;;;;10.00;7.45;;;27.30;91.00;;;;;;4211569;28;20036;-63
2023/06/11 08:28:36;;;;;;;9.30;6.72;;;27.30;91.10;;;;;;4202041;28;20044;-63
2023/06/11 08:30:38;;;;;;;7.88;6.80;;;27.30;91.00;;;;;;4213291;28;20157;-63
2023/06/11 08:32:41;;;;;;;8.93;6.10;;;27.30;90.90;;;;;;4203872;28;20052;-61
2023/06/11 08:34:44;;;;;;;8.30;6.57;;;27.40;90.90;;;;;;4209666;28;20051;-63
2023/06/11 08:36:46;;;;;;;6.22;5.40;;;27.40;90.80;;;;;;4192573;28;20178;-63
2023/06/11 08:38:48;;;;;;;6.88;6.22;;;27.60;90.70;;;;;;4201827;28;20079;-63
2023/06/11 08:40:50;;;;;;;5.82;5.05;;;27.60;90.70;;;;;;4195053;28;20078;-63
2023/06/11 08:42:53;;;;;;;5.25;4.75;;;27.70;90.60;;;;;;4205185;28;20098;-64
2023/06/11 08:44:55;;;;;;;7.25;4.90;;;27.60;90.70;;;;;;4208416;28;20052;-65
2023/06/11 08:47:01;;;;;;;6.10;5.20;;;27.50;90.70;;;;;;4210466;28;20080;-65
2023/06/11 08:49:06;;;;;;;6.28;4.82;;;27.50;90.80;;;;;;4201652;28;20047;-64
2023/06/11 08:51:10;;;;;;;;;;;27.50;90.80;;;;;;4195526;28;20120;-64
2023/06/11 08:53:12;;;;;;;5.70;5.07;;;27.50;90.80;;;;;;4205023;28;19927;-64
2023/06/11 08:55:15;;;;;;;6.35;4.30;;;27.50;91.00;;;;;;4209477;28;20052;-64
2023/06/11 08:57:18;;;;;;;6.45;5.15;;;27.50;90.90;;;;;;4213923;28;20057;-64
2023/06/11 08:59:20;;;;;;;5.65;4.70;;;27.50;90.90;;;;;;4204790;28;20595;-62
2023/06/11 09:01:23;;;;;;;5.65;4.80;;;27.50;90.90;;;;;;4216447;28;20055;-62
2023/06/11 09:03:25;;;;;;;5.68;4.70;;;27.60;90.60;;;;;;4209408;28;20044;-63
2023/06/11 09:05:27;;;;;;;7.28;4.30;;;27.70;90.30;;;;;;4209744;28;20121;-63
2023/06/11 09:07:32;;;;;;;6.35;4.22;;;27.70;90.10;;;;;;4213957;28;20127;-63
2023/06/11 09:09:38;;;;;;;7.18;4.57;;;27.80;89.70;;;;;;4201758;28;20119;-64
2023/06/11 09:11:40;;;;;;;5.93;4.70;;;27.90;90.00;;;;;;4216163;28;20044;-63
2023/06/11 09:13:42;;;;;;;7.75;5.80;;;27.90;90.20;;;;;;4209878;28;20136;-64
2023/06/11 09:15:48;;;;;;;5.30;4.80;;;27.90;91.20;;;;;;4190725;28;20070;-64
2023/06/11 09:17:50;;;;;;;6.05;5.43;;;27.90;90.50;;;;;;4196437;28;20094;-64
2023/06/11 09:19:55;;;;;;;5.43;4.70;;;27.90;90.60;;;;;;4210033;28;20044;-64
2023/06/11 09:21:57;;;;;;;5.55;4.95;;;28.00;90.70;;;;;;4199219;28;20068;-63
2023/06/11 09:24:07;;;;;;;9.65;6.07;;;28.00;90.50;;;;;;4204588;28;20500;-63
2023/06/11 09:26:11;;;;;;;6.32;4.82;;;28.10;91.10;;;;;;4205135;28;20394;-63
2023/06/11 09:28:13;;;;;;;7.43;5.20;;;28.00;90.60;;;;;;4214902;28;20118;-64
2023/06/11 09:30:17;;;;;;;5.85;4.70;;;28.00;90.80;;;;;;4210163;28;20056;-62
2023/06/11 09:32:19;;;;;;;5.93;4.80;;;28.10;90.90;;;;;;4199003;28;20437;-63
2023/06/11 09:34:36;;;;;;;8.05;5.15;;;28.00;90.70;;;;;;4190220;28;20154;-63
2023/06/11 09:36:39;;;;;;;9.23;5.10;;;27.90;90.70;;;;;;4202178;28;20495;-63
2023/06/11 09:38:45;;;;;;;8.45;5.38;;;27.80;90.70;;;;;;4200128;28;20175;-63
2023/06/11 09:40:50;;;;;;;5.38;4.72;;;27.60;90.90;;;;;;4209936;28;20488;-63
2023/06/11 09:42:52;;;;;;;;;;;27.50;91.10;;;;;;4199185;28;20045;-63
2023/06/11 09:44:58;;;;;;;7.63;4.63;;;27.50;91.10;;;;;;4205736;28;19920;-63
2023/06/11 09:47:02;;;;;;;5.07;4.63;;;27.40;91.40;;;;;;4201960;28;20048;-63
2023/06/11 09:49:06;;;;;;;8.88;6.78;;;27.30;91.70;;;;;;4199516;28;20048;-63
2023/06/11 09:51:09;;;;;;;10.30;7.70;;;27.10;92.20;;;;;;4209786;28;20048;-64
2023/06/11 09:53:12;;;;;;;11.45;7.90;;;27.10;92.70;;;;;;4198677;28;20470;-64
2023/06/11 09:55:15;;;;;;;11.13;8.77;;;27.00;93.00;;;;;;4206028;28;20051;-63
2023/06/11 09:57:19;;;;;;;10.30;8.25;;;26.90;93.20;;;;;;4202455;28;20482;-64
2023/06/11 09:59:23;;;;;;;;;;;26.80;93.10;;;;;;4200446;28;20050;-63
2023/06/11 10:01:26;;;;;;;11.45;9.02;;;26.80;93.40;;;;;;4209958;28;19920;-63
2023/06/11 10:03:30;;;;;;;12.60;8.82;;;26.70;93.40;;;;;;4198236;28;20040;-63
2023/06/11 10:05:35;;;;;;;9.63;8.48;;;26.80;93.60;;;;;;4205231;28;20044;-63
2023/06/11 10:07:42;;;;;;;12.45;9.00;;;26.80;93.50;;;;;;4201454;28;20461;-64
2023/06/11 10:09:46;;;;;;;10.35;8.50;;;26.70;93.60;;;;;;4199566;28;20064;-64
2023/06/11 10:11:49;;;;;;;13.38;9.40;;;26.80;93.30;;;;;;4191751;28;20072;-64
2023/06/11 10:13:58;;;;;;;11.35;9.30;;;26.80;93.10;;;;;;4198429;28;20490;-64
2023/06/11 10:16:01;;;;;;;9.80;8.25;;;26.60;93.60;;;;;;4205360;28;20052;-64
2023/06/11 10:18:12;;;;;;;13.07;10.27;;;26.60;93.80;;;;;;4201950;28;20048;-64
2023/06/11 10:20:19;;;;;;;10.65;9.07;;;26.60;93.90;;;;;;4199605;28;20440;-62
2023/06/11 10:22:31;;;;;;;15.52;9.13;;;26.60;93.80;;;;;;4209324;28;20048;-64
2023/06/11 10:24:33;;;;;;;14.45;9.40;;;26.60;94.10;;;;;;4198318;28;20127;-64
2023/06/11 10:26:35;;;;;;;20.75;11.45;;;26.60;94.10;;;;;;4206938;28;20040;-63
2023/06/11 10:28:41;;;;;;;14.07;11.75;;;26.60;93.90;;;;;;4214627;28;20059;-63
2023/06/11 10:30:53;;;;;;;10.65;9.45;;;26.80;93.80;;;;;;4213247;28;20135;-64
2023/06/11 10:32:58;;;;;;;11.13;9.98;;;26.80;93.80;;;;;;4197864;28;20049;-64
2023/06/11 10:35:03;;;;;;;16.90;10.65;;;26.90;93.70;;;;;;4198123;28;20045;-61
2023/06/11 10:37:06;;;;;;;15.45;10.60;;;26.90;93.70;;;;;;4207926;28;20044;-62
2023/06/11 10:39:09;;;;;;;13.93;11.40;;;26.90;93.50;;;;;;4199045;28;20471;-62
2023/06/11 10:41:12;;;;;;;11.35;10.07;;;26.90;93.50;;;;;;4200398;28;20398;-62